Mayfield, KY (42066)

8:01 PM CDT on September 17, 2014 (GMT -0500)
Highway 131 | Change Station
CLOSE
Current Station
Personal Weather Station
Location: Mayfield, KY
Elevation: 495 ft
Nearby Weather Stations

Elev 495 ft 36.80 °N, 88.60 °W | Updated 13 minutes ago

Partly Cloudy
Partly Cloudy
61.9 °F
Feels Like 61.9 °F
N
0.0
Wind Variable Wind from SE

Today
High -- | Low -- °F
--% Chance of Precip.
Yesterday
High -- | Low -- °F
Precip. -- in
6:38 AM 6:59 PM
Waning Crescent, 31% visible
Pressure 29.97 in
Visibility 10.0 miles
Clouds Scattered Clouds 4200 ft
Mostly Cloudy 9000 ft
Dew Point 58 °F
Humidity 87%
Rainfall 0.00 in
Snow Depth Not available.
UV 0 out of 12
Pollen 7.30 out of 12
Air Quality Not available.
Flu Activity Not available.
METAR KM25 180055Z AUTO 00000KT 10SM SCT042 BKN090 17/14 A2997 RMK AO2

More Conditions Fewer Conditions

Pressure 29.97 in
Visibility 10.0 miles
Clouds Scattered Clouds 4200 ft
Mostly Cloudy 9000 ft
Dew Point 58 °F
Humidity 87%
Rainfall 0.00 in
Snow Depth Not available.
UV 0 out of 12
Pollen 7.30 out of 12
Air Quality Not available.
Flu Activity Not available.
METAR KM25 180055Z AUTO 00000KT 10SM SCT042 BKN090 17/14 A2997 RMK AO2

More Conditions Fewer Conditions

10-Day Weather Forecast

Almanac

Astronomy

Sep. 17, 2014 Rise Set
Actual Time 6:38 AM CDT 6:59 PM CDT
Civil Twilight 6:12 AM CDT 7:24 PM CDT
Nautical Twilight 5:42 AM CDT 7:55 PM CDT
Astronomical Twilight 5:11 AM CDT 8:26 PM CDT
Moon 12:44 AM CDT (9/17) 3:02 PM CDT (9/17)
Length of Visible Light 13h 12m
Length of Day
12h 20m
Tomorrow will be 2m 19s shorter.
Waning Crescent, 31% of the Moon is Illuminated
Today
Waning Crescent
Sep 24
New
Oct 1
First Quarter
Oct 8
Full
Oct 15
Last Quarter

Today's Extremes

State Highs State Lows

Community

WunderPhotos

Upload Photos

1,754,241 photos uploaded!

Nearby

Snow Depth

Station Depth Elevation
No new snow has been reported.

Earthquake Activity

City Distance Mag. Time & Date
No recent earthquake activity has been reported nearby.
Minimum magnitude displayed is 2.5.

Coastal Water Temperatures

Place Temperature
No Stations Reporting

Nearby Weather Stations